< < Back
Terminal Aerodrome Forecast


Current Version              Previous Versions:   1  2  3  4  5  6  7  8  9  

Terminal Aerodrome Forecast

365
FTUS42 KFFC 090523
TAFATL
TAF
KATL 090523Z 0906/1012 30011G18KT P6SM SCT050 BKN070
     FM091200 29012G24KT P6SM -SN FEW015 BKN030
     FM092200 30012KT P6SM BKN030
     FM100400 29010KT P6SM BKN040=

Latest METAR

081
SAUS70 KWBC 091000 RRL
MTRATL
METAR KATL 090952Z 30011KT 10SM OVC048 01/M06 A2980 RMK AO2 SLP095
T00111061


USA.gov is the U.S. government's official web portal to all federal, state and local government web resources and services.